トロント/ピアソン の空港の天気 - METARとTAF

トロント・ピアソン国際空港 ( CYYZ / YYZ ) - カナダ オンタリオ州トロント
飛行場実況気象(Metar)
観測時間05/30 14:00 EDT (05/30 18:00 UTC)
風向・風速西北西 11m/s
視程10km以上
天気現象
少しの雲 雲底高度 940m
全天の8割程度の雲 雲底高度 1190m
全天の8割程度の雲 雲底高度 5490m
気温17℃
湿度59%
気圧1014.2hPa
METARCYYZ 301800Z 29022KT 15SM FEW031 BKN039 BKN180 17/09 A2994 RMK CU2SC4AC1 SLP142 DENSITY ALT 1000FT
過去の天気等 Google飛行場航空写真 Wunderground天気予報

過去48時間のMETAR

飛行場予報(TAF)
発表時間: 5/30 13:38 EDT (5/30 17:38 UTC)
予報対象時間: 30日14時 EDT ~ 31日20時 EDT
風向・風速西北西 8m/s 瞬間風速 13m/s
視程10km以上
全天の4割程度の雲 雲底高度 910m
全天の8割程度の雲 雲底高度 1520m
30日22時 EDT から
風向・風速北北西 6m/s
視程10km以上
全天の4割程度の雲 雲底高度 1220m
30日22時 EDT ~ 30日24時 EDT に徐々に
風向・風速北北西 3m/s
31日3時 EDT から
風向・風速北北西 5m/s
視程10km以上
全天の8割程度の雲 雲底高度 910m
31日7時 EDT から
風向・風速北北西 6m/s
視程10km以上
少しの雲 雲底高度 910m
31日15時 EDT から
風向・風速北西 8m/s
視程10km以上
全天の8割程度の雲 雲底高度 1830m
TAF CYYZ 301738Z 3018/3124 30015G25KT P6SM SCT030 BKN050
FM310200 34012KT P6SM SCT040
BECMG 3102/3104 34006KT
FM310700 34010KT P6SM BKN030
FM311100 34012KT P6SM FEW030
FM311900 31015KT P6SM BKN060 RMK NXT FCST BY 302100Z